Terminal Aerodrome Forecast
Issued by NWS Bismarck, ND

Home | Current Version | Previous Version | Graphics & Text | Print | Product List | Glossary On
Versions: 1 2 3 4 5 6 7 8 9 10 11 12 13
707
FTUS43 KBIS 170537
TAFISN
TAF
KISN 170537Z 1706/1806 29015KT P6SM SCT110
     FM170800 29010KT P6SM SCT100
     FM171300 VRB03KT P6SM SCT200
     FM180100 31005KT P6SM SCT080
     FM180200 33005KT P6SM BKN060=

USA.gov is the U.S. government's official web portal to all federal, state and local government web resources and services.